• Join FlightAware (Why Join?)
  • Login
  • US Flag 
09:25PM EST


 

Airport Tracker/Info


-or-


 

Live Flight TrackerFlight Track Log ✈ CSQ803 ✈ 07-May-2013 ✈ KMIA - MUHA / HAV

Flight Track Log - Related Links

Times and Time Zones

All times are in EDT time to prevent confusion due to time zone crossing. See the CSQ803 flight status page for this flight to view local times or setup timezone preferences in your user account.

Time Position Orientation Groundspeed Altitude Reporting Facility
EDT Latitude Longitude Course Direction KTS MPH feet Rate Location/Type
08:56AM 25.7994 -80.3114 193° South 124 143 700  Level Miami Center
08:57AM 25.7797 -80.3500 240° Southwest 149 171 2,500 1,560 Climbing Miami Center
08:58AM 25.7578 -80.3864 236° Southwest 149 171 3,900 1,380 Climbing Miami Center
08:59AM 25.7200 -80.4014 200° South 145 167 5,400 660 Climbing Miami Center
09:01AM 25.6108 -80.4167 187° South 201 231 6,000 180 Climbing Miami Center
09:02AM 25.5077 -80.5128 193° South  Level Estimated
09:02AM 25.5444 -80.4078 173° South 220 253 6,100  Level Miami Center
09:03AM 25.4903 -80.4017 174° South 218 251 8,100 1,440 Climbing Miami Center
09:04AM 25.4361 -80.3931 172° South 206 237 9,000 900 Climbing Miami Center
09:05AM 25.3842 -80.3847 172° South 196 226 10,000 960 Climbing Miami Center
09:06AM 25.3339 -80.3808 176° South 196 226 11,000 900 Climbing Miami Center
09:07AM 25.2958 -80.4097 214° Southwest 168 193 11,900 840 Climbing Miami Center
09:08AM 25.2636 -80.4456 225° Southwest 168 193 12,700 720 Climbing Miami Center
09:09AM 25.2292 -80.4789 221° Southwest 173 199 13,400 660 Climbing Miami Center
09:10AM 25.1950 -80.5169 225° Southwest 173 199 14,100 600 Climbing Miami Center
09:11AM 25.1689 -80.5597 236° Southwest 178 205 14,600 480 Climbing Miami Center
09:12AM 25.1444 -80.6094 242° Southwest 178 205 15,100 600 Climbing Miami Center
09:13AM 25.1203 -80.6569 241° Southwest 183 211 15,900 420 Climbing Miami Center
09:14AM 25.0981 -80.7067 244° Southwest 183 211 16,000  Climbing Miami Center
09:15AM 25.0717 -80.7586 241° Southwest 183 211 16,000  Level Miami Center
09:16AM 25.0431 -80.8175 242° Southwest 202 232 16,000 -60 Level Miami Center
09:17AM 25.0100 -80.8758 238° Southwest 217 250 15,900  Descending Miami Center
09:18AM 24.9772 -80.9344 238° Southwest 223 257 16,000  Climbing Miami Center
09:19AM 24.9508 -80.9839 240° Southwest 228 262 16,000 -60 Level Miami Center
09:20AM 24.9175 -81.0539 242° Southwest 228 262 15,900 -60 Descending Miami Center
09:21AM 24.8906 -81.1169 245° Southwest 223 257 15,900  Level Miami Center
09:22AM 24.8617 -81.1778 242° Southwest 223 257 16,000  Climbing Miami Center
09:23AM 24.8286 -81.2383 239° Southwest 228 262 16,000  Level Miami Center
09:24AM 24.7975 -81.2992 241° Southwest 228 262 16,000  Level Miami Center
09:25AM 24.7644 -81.3550 237° Southwest 228 262 16,000  Level Miami Center
09:26AM 24.7378 -81.4136 243° Southwest 223 257 16,000  Level Miami Center
09:27AM 24.7086 -81.4742 242° Southwest 218 251 16,000  Level Miami Center
09:28AM 24.6775 -81.5325 240° Southwest 218 251 16,000  Level Miami Center
09:29AM 24.6464 -81.5931 241° Southwest 218 251 16,000  Level Miami Center
09:30AM 24.6219 -81.6378 239° Southwest 218 251 16,000  Level Miami Center
09:31AM 24.5842 -81.7117 241° Southwest 224 258 16,000  Level Miami Center
09:32AM 24.5572 -81.7678 242° Southwest 232 267 16,000  Level Miami Center
09:35AM 24.4525 -81.9028 230° Southwest 225 259 16,000  Level Miami Center
09:36AM 24.4131 -81.9558 231° Southwest 237 273 16,000  Level Miami Center
09:37AM 24.3758 -82.0067 231° Southwest 232 267 16,000  Level Miami Center
09:38AM 24.3406 -82.0622 235° Southwest 227 261 16,000  Level Miami Center
09:39AM 24.3031 -82.1153 232° Southwest 222 255 16,000  Level Miami Center
09:40AM 24.2658 -82.1661 231° Southwest 222 255 16,000  Level Miami Center
09:41AM 24.2267 -82.2122 227° Southwest 222 255 16,100  Climbing Miami Center
09:42AM 24.1872 -82.2628 229° Southwest 222 255 16,100  Level Miami Center
09:43AM 24.1478 -82.3158 231° Southwest 227 261 16,100  Level Miami Center
09:44AM 24.1122 -82.3711 235° Southwest 227 261 16,100  Level Miami Center
09:45AM 24.0728 -82.4217 229° Southwest 227 261 16,100  Level Miami Center
09:46AM 24.0333 -82.4744 231° Southwest 227 261 16,100  Level Miami Center
09:48AM 23.9831 -82.5143 173° South  Level FlightAware Approximate
09:55AM 23.5838 -82.4642 172° South  Level FlightAware Approximate
09:56AM 23.5269 -82.4554 172° South  Level FlightAware Approximate
09:57AM 23.4700 -82.4467 172° South  Level FlightAware Approximate
09:58AM 23.4132 -82.4379 172° South  Level FlightAware Approximate
09:59AM 23.3562 -82.4299 173° South  Level FlightAware Approximate
10:00AM 23.2992 -82.4228 173° South  Level FlightAware Approximate
10:01AM 23.2421 -82.4167 180° South  Level FlightAware Approximate
10:02AM 23.1846 -82.4167 180° South  Level FlightAware Approximate
10:03AM 23.1273 -82.4155 170° South  Level FlightAware Approximate
10:04AM 23.0708 -82.4042 170° South  Level FlightAware Approximate
10:05AM 23.0137 -82.4000 180° South  Level FlightAware Approximate
10:06AM 22.9891 -82.4091 180° South  Level Estimated
10:07AM 22.9891 -82.4091 180° South  Level Estimated
10:08AM 22.9891 -82.4091 180° South  Level Estimated
10:09AM 22.9891 -82.4091 180° South  Level Estimated
10:10AM 22.9891 -82.4091 180° South  Level Estimated
10:11AM 22.9891 -82.4091 180° South  Level Estimated
10:12AM 22.9891 -82.4091 180° South  Level Estimated
10:13AM 22.9891 -82.4091 180° South  Level Estimated
10:14AM 22.9891 -82.4091 180° South  Level Estimated